Terminal Aerodrome Forecast
Issued by NWS

Home | Current Version | Previous Version | Text Only | Print | Product List | Glossary On
Versions: 1 2 3 4 5 6 7 8 9 10 11 12 13 14
000
FTUS41 KBTV 282335
TAFPBG
TAF
KPBG 282335Z 2900/2924 17011KT P6SM BKN070
     FM291300 17015KT 4SM -SHRA BR OVC080
     FM292200 16012G24KT P6SM VCSH BKN025=

USA.gov is the U.S. government's official web portal to all federal, state and local government web resources and services.